AirNav   Air Wisconsin pilot careers
 
 1141 users online  

97Y Genoa Municipal Airport
Genoa, Nebraska, USA

GOING TO GENOA?


FAA INFORMATION EFFECTIVE 29 MARCH 2018

Location

FAA Identifier: 97Y
Lat/Long: 41-24-15.0480N / 097-42-31.1860W
41-24.250800N / 097-42.519767W
41.4041800 / -97.7086628
(estimated)
Elevation: 1570 ft. / 478.5 m (surveyed)
Variation: 07E (1985)
From city: 3 miles SE of GENOA, NE
Time zone: UTC -5 (UTC -6 during Standard Time)
Zip code: 68640

Airport Operations

Airport use: Open to the public
Activation date: 12/1971
Control tower: no
ARTCC: MINNEAPOLIS CENTER
FSS: COLUMBUS FLIGHT SERVICE STATION
NOTAMs facility: OLU (NOTAM-D service available)
Attendance: UNATNDD
Pattern altitude: 2370 ft. MSL
Wind indicator: yes
Segmented circle: no

Airport Communications

CTAF/UNICOM: 122.8
WX AWOS-3PT at OLU (17 nm E): 125.525 (402-563-3895)

Nearby radio navigation aids

VOR radial/distance  VOR name  Freq  Var
OLUr253/16.8COLUMBUS VOR/DME111.8008E
OBHr080/29.1WOLBACH VORTAC114.8007E
OFKr191/37.1NORFOLK VOR/DME109.6008E
GRIr040/37.2GRAND ISLAND VOR/DME112.0007E

 
NDB name  Hdg/Dist  Freq  Var  ID
PLATTE CENTER241/15.740708EPLT .--. .-.. -
YORK346/30.725706EJYR .--- -.-- .-.

Airport Services

Fuel available: 100LL
FOR FUEL CALL (402) 933-6000 OR (402) 933-2324.
Parking: tiedowns
Airframe service: NONE
Powerplant service: NONE
Bottled oxygen: NONE
Bulk oxygen: NONE

Runway Information

Runway 11/29

Dimensions: 2500 x 75 ft. / 762 x 23 m
Surface: turf, in good condition
RUNWAY 11  RUNWAY 29
Traffic pattern: leftleft
Obstructions: 17 ft. road, 360 ft. from runway, 21:1 slope to clear4 ft. fence, 43 ft. from runway, 81 ft. left of centerline, 10:1 slope to clear

Airport Ownership and Management from official FAA records

Ownership: Publicly-owned
Owner: GENOA AIRPORT AUTHORITY
PO BOX 501
GENOA, NE 68640-0501
Manager: DON PEARSON
GENOA ARPT AUTH, PO BOX 501
GENOA, NE 68640
Phone 402-948-0067

Airport Operational Statistics

Aircraft based on the field: 3
Single engine airplanes: 3
    
Aircraft operations: avg 20/week *
57% local general aviation
38% transient general aviation
5% military
* for 12-month period ending 11 May 2017

Instrument Procedures

There are no published instrument procedures at 97Y.

Some nearby airports with instrument procedures:

KOLU - Columbus Municipal Airport (17 nm E)
07K - Central City Municipal Airport - Larry Reineke Field (23 nm SW)
KBVN - Albion Municipal Airport (25 nm NW)
93Y - David City Municipal Airport (28 nm E)
KJYR - York Municipal Airport (31 nm S)
 
Loc | Ops | Rwys | IFR | FBO | Links
Com | Nav | Svcs | Stats | Notes

Silverhawk Aviation, Inc.
AirBoss

 
Area around 97Y (Genoa Municipal Airport)
 
Road maps at: MapQuest Bing Google
 
Aerial photo
WARNING: Photo may not be current or correct
Aerial photo of 97Y (Genoa Municipal Airport)
Do you have a better or more recent aerial photo of Genoa Municipal Airport that you would like to share? If so, please send us your photo.

 
Sectional chart

 
Airport distance calculator
Flying to Genoa Municipal Airport? Find the distance to fly.

From to 97Y

Sunrise and sunset
Times for 24-Apr-2018
 Local
(UTC-5)
 Zulu
(UTC)
Morning civil twilight06:0911:09
Sunrise06:3911:39
Sunset20:1901:19
Evening civil twilight20:4901:49

Current date and time
Zulu (UTC)  24-Apr-2018 23:43:23
Local (UTC-5)  24-Apr-2018 18:43:23
 
METAR
KOLU 
18nm E 
242256Z AUTO 31010KT 10SM -RA OVC011 10/08 A3022 RMK AO2 SLP242 P0001 T01000083
KBVN 
25nm NW 
242315Z AUTO 35012G19KT 4SM BR BKN007 OVC011 08/07 A3024 RMK AO2 T00840074
KJYR 
31nm S 
242315Z AUTO 33011KT 9SM -RA 08/08 A3022 RMK AO2 P0001
KAUH 
34nm SW 
242315Z AUTO 32013KT 10SM -DZ OVC010 09/08 A3022 RMK AO2 T00860077
TAF
KOFK 
37nm N 
242025Z 2420/2518 32011KT 6SM -SHRA SCT009 OVC025 TEMPO 2420/2423 4SM -SHRA BKN009 OVC025 FM242300 36012KT P6SM OVC015 TEMPO 2423/2502 4SM -RA BR OVC007 FM250200 01008KT P6SM OVC015 FM250600 01009KT 4SM -SHRA OVC015 PROB30 2508/2514 -SHRA OVC007
KGRI 
38nm SW 
241720Z 2418/2518 33014G20KT P6SM -SHRA OVC015 FM250000 34011KT P6SM VCSH OVC015 FM250400 34011KT P6SM VCSH OVC008 FM251600 02008KT P6SM OVC012
NOTAMs
Click for the latest NOTAMs
NOTAMs are issued by the DoD/FAA and will open in a separate window not controlled by AirNav.

 

 
 

FBO, Fuel Providers, and Aircraft Ground Support

  
 Business Name 
 
 Contact 
 
 Services / Description 
 
Fuel Prices
 
Comments
  
Genoa Municipal Airport 402-993-6000
no information available

If you are affiliated with Genoa Municipal Airport and would like to show here your services, contact info, web link, logo, and more, click here
100LL
AS $4.00 
 Updated 18-Jul-2017
 
   write
AS=Assisted/Self Service
Update Fuel Prices
 

Would you like to see your business listed on this page?

 If your business provides an interesting product or service to pilots, flight crews, aircraft, or users of the Genoa Municipal Airport, you should consider listing it here.  To start the listing process, click on the button below
 
Add a business
 

Other Pages about Genoa Municipal Airport

Update a link
 
Copyright © AirNav, LLC. All rights reserved. Privacy Policy  Contact